Time;durP1;ratioP1;P1;durP2;ratioP2;P2;SDS_P1;SDS_P2;PMS_P1;PMS_P2;Temp;Humidity;BMP_temperature;BMP_pressure;BME280_temperature;BME280_humidity;BME280_pressure;Samples;Min_cycle;Max_cycle;Signal;HPM_P1;HPM_P2
2023/06/30 00:00:11;;;;;;;3.07;1.23;;;19.80;79.30;;;;;;4975752;28;20046;-19
2023/06/30 00:02:38;;;;;;;1.80;1.27;;;19.80;79.50;;;;;;4974738;28;20152;-19
2023/06/30 00:05:05;;;;;;;2.67;1.40;;;19.80;79.50;;;;;;4982547;28;20034;-19
2023/06/30 00:07:30;;;;;;;1.73;1.27;;;19.80;79.60;;;;;;4971636;28;20161;-19
2023/06/30 00:09:56;;;;;;;1.60;1.30;;;19.70;79.80;;;;;;4944821;28;20042;-19
2023/06/30 00:12:22;;;;;;;2.70;1.30;;;19.80;79.90;;;;;;4953691;28;20034;-18
2023/06/30 00:14:47;;;;;;;1.83;1.40;;;19.70;79.80;;;;;;4969410;28;20501;-19
2023/06/30 00:17:13;;;;;;;2.03;1.48;;;19.70;80.00;;;;;;4969037;28;20031;-19
2023/06/30 00:19:39;;;;;;;2.83;1.50;;;19.70;80.10;;;;;;4970417;28;20472;-18
2023/06/30 00:22:05;;;;;;;2.45;1.30;;;19.70;80.10;;;;;;4982711;28;20146;-19
2023/06/30 00:24:30;;;;;;;2.42;1.30;;;19.70;80.30;;;;;;4944447;28;21946;-19
2023/06/30 00:26:56;;;;;;;2.07;1.40;;;19.70;80.40;;;;;;4971165;28;20042;-18
2023/06/30 00:29:22;;;;;;;2.00;1.20;;;19.70;80.50;;;;;;4953129;28;20149;-19
2023/06/30 00:31:48;;;;;;;1.50;1.20;;;19.60;80.50;;;;;;4969613;28;20432;-18
2023/06/30 00:34:14;;;;;;;2.28;1.30;;;19.60;80.60;;;;;;4968130;28;20034;-19
2023/06/30 00:36:39;;;;;;;1.80;1.30;;;19.60;80.60;;;;;;4968691;28;20081;-19
2023/06/30 00:39:05;;;;;;;2.17;1.23;;;19.60;80.60;;;;;;4958564;28;20678;-19
2023/06/30 00:41:31;;;;;;;2.00;1.50;;;19.60;80.60;;;;;;4939965;28;20030;-19
2023/06/30 00:43:56;;;;;;;1.60;1.40;;;19.70;80.60;;;;;;4969582;28;20026;-19
2023/06/30 00:46:22;;;;;;;1.60;1.30;;;19.60;80.60;;;;;;4966270;28;20247;-19
2023/06/30 00:48:49;;;;;;;1.77;1.45;;;19.60;80.60;;;;;;4968613;28;20146;-18
2023/06/30 00:51:15;;;;;;;2.20;1.48;;;19.60;80.80;;;;;;4966453;28;20030;-19
2023/06/30 00:53:41;;;;;;;2.17;1.50;;;19.60;80.90;;;;;;4972615;28;20046;-19
2023/06/30 00:56:07;;;;;;;1.97;1.30;;;19.60;80.90;;;;;;4946253;28;20069;-19
2023/06/30 00:58:33;;;;;;;2.70;1.30;;;19.60;81.10;;;;;;4967921;28;20238;-19
2023/06/30 01:01:07;;;;;;;2.70;1.45;;;19.60;81.90;;;;;;4969319;28;20064;-19
2023/06/30 01:03:48;;;;;;;1.60;1.20;;;19.60;81.30;;;;;;4966306;28;20334;-19
2023/06/30 01:06:24;;;;;;;3.97;1.48;;;19.60;81.80;;;;;;4966677;28;20074;-19
2023/06/30 01:09:02;;;;;;;2.20;1.40;;;19.60;82.10;;;;;;4956217;28;20039;-19
2023/06/30 01:11:28;;;;;;;3.35;1.40;;;19.60;81.10;;;;;;4940963;28;20034;-19
2023/06/30 01:13:57;;;;;;;2.20;1.50;;;19.60;81.10;;;;;;4953313;28;20019;-18
2023/06/30 01:16:24;;;;;;;1.50;1.30;;;19.60;81.40;;;;;;4965047;28;20121;-19
2023/06/30 01:18:52;;;;;;;2.80;1.45;;;19.60;81.40;;;;;;4966488;28;20073;-19
2023/06/30 01:21:21;;;;;;;2.20;1.40;;;19.60;81.40;;;;;;4978852;28;20137;-19
2023/06/30 01:23:58;;;;;;;2.67;1.55;;;19.60;81.50;;;;;;4965395;28;20049;-19
2023/06/30 01:26:25;;;;;;;3.78;1.70;;;19.60;82.00;;;;;;4954219;28;20223;-19
2023/06/30 01:28:51;;;;;;;2.33;1.50;;;19.60;81.40;;;;;;4955578;28;21005;-18
2023/06/30 01:31:20;;;;;;;2.25;1.48;;;19.60;81.50;;;;;;4950387;28;20133;-19
2023/06/30 01:33:46;;;;;;;3.10;1.50;;;19.60;81.60;;;;;;4967646;28;20031;-19
2023/06/30 01:36:12;;;;;;;2.95;1.50;;;19.60;81.40;;;;;;4970857;28;20034;-19
2023/06/30 01:38:38;;;;;;;2.17;1.25;;;19.60;81.40;;;;;;4966064;28;20121;-18
2023/06/30 01:41:07;;;;;;;2.07;1.30;;;19.60;81.30;;;;;;4957048;28;20381;-19
2023/06/30 01:43:35;;;;;;;2.00;1.10;;;19.50;81.50;;;;;;4940844;28;20260;-19
2023/06/30 01:46:01;;;;;;;2.42;1.17;;;19.50;81.00;;;;;;4956234;28;20035;-19
2023/06/30 01:48:28;;;;;;;1.67;1.00;;;19.50;80.90;;;;;;4964799;28;20196;-19
2023/06/30 01:50:56;;;;;;;2.42;1.10;;;19.50;80.90;;;;;;4970785;28;20038;-19
2023/06/30 01:53:21;;;;;;;1.70;1.20;;;19.40;80.80;;;;;;4967309;28;20408;-19
2023/06/30 01:55:47;;;;;;;2.40;1.15;;;19.40;80.60;;;;;;4957433;28;20026;-18
2023/06/30 01:58:13;;;;;;;1.70;1.20;;;19.40;80.60;;;;;;4951551;28;20030;-19
2023/06/30 02:00:39;;;;;;;2.63;1.30;;;19.30;80.60;;;;;;4943735;28;20273;-19
2023/06/30 02:03:05;;;;;;;2.60;1.25;;;19.20;80.40;;;;;;4970402;28;20035;-19
2023/06/30 02:05:31;;;;;;;2.00;1.00;;;19.20;80.30;;;;;;4963248;28;20061;-19
2023/06/30 02:07:56;;;;;;;1.92;1.10;;;19.10;80.20;;;;;;4966831;28;20039;-19
2023/06/30 02:10:22;;;;;;;3.80;1.20;;;19.10;80.20;;;;;;4972575;28;20417;-18
2023/06/30 02:12:48;;;;;;;2.25;1.10;;;19.00;80.10;;;;;;4957126;28;20031;-18
2023/06/30 02:15:13;;;;;;;2.83;1.20;;;18.90;80.10;;;;;;4939410;28;20039;-19
2023/06/30 02:17:40;;;;;;;2.97;1.33;;;18.90;80.00;;;;;;4955056;28;20089;-19
2023/06/30 02:20:06;;;;;;;1.75;1.05;;;18.80;80.00;;;;;;4973600;28;20108;-19
2023/06/30 02:22:33;;;;;;;2.07;1.10;;;18.70;80.10;;;;;;4969255;28;20731;-18
2023/06/30 02:25:00;;;;;;;1.40;1.17;;;18.70;80.10;;;;;;4967195;28;20606;-19
2023/06/30 02:27:27;;;;;;;2.33;1.10;;;18.60;80.00;;;;;;4938432;28;20073;-19
2023/06/30 02:29:52;;;;;;;2.17;1.20;;;18.60;80.10;;;;;;4942060;28;20026;-18
2023/06/30 02:32:19;;;;;;;3.70;1.20;;;18.50;80.20;;;;;;4950160;28;20572;-19
2023/06/30 02:34:45;;;;;;;2.72;1.25;;;18.40;80.10;;;;;;4969114;28;20015;-18
2023/06/30 02:37:11;;;;;;;3.05;1.20;;;18.40;80.20;;;;;;4967512;28;20371;-19
2023/06/30 02:39:36;;;;;;;3.75;1.23;;;18.30;80.30;;;;;;4969117;28;20081;-18
2023/06/30 02:42:02;;;;;;;2.50;1.30;;;18.20;80.30;;;;;;4963147;28;20030;-19
2023/06/30 02:44:28;;;;;;;2.90;1.23;;;18.20;80.40;;;;;;4967475;28;20062;-19
2023/06/30 02:46:54;;;;;;;3.13;1.20;;;18.10;80.30;;;;;;4944401;28;20044;-19
2023/06/30 02:49:19;;;;;;;2.08;1.20;;;18.00;80.40;;;;;;4965690;28;20022;-19
2023/06/30 02:51:45;;;;;;;5.33;1.40;;;17.90;80.40;;;;;;4969838;28;20384;-19
2023/06/30 02:54:11;;;;;;;2.15;1.17;;;17.90;80.50;;;;;;4968992;28;20030;-19
2023/06/30 02:56:37;;;;;;;2.63;1.20;;;17.80;80.60;;;;;;4966366;28;20160;-19
2023/06/30 02:59:02;;;;;;;2.85;1.20;;;17.70;80.70;;;;;;4957930;28;20328;-19
2023/06/30 03:01:28;;;;;;;2.83;1.10;;;17.70;80.80;;;;;;4940267;28;20879;-18
2023/06/30 03:03:54;;;;;;;2.72;1.20;;;17.60;80.70;;;;;;4957186;28;20636;-19
2023/06/30 03:06:20;;;;;;;2.08;1.10;;;17.50;80.70;;;;;;4965380;28;20033;-19
2023/06/30 03:08:46;;;;;;;2.23;0.97;;;17.50;80.90;;;;;;4969832;28;20117;-19
2023/06/30 03:11:11;;;;;;;1.40;1.00;;;17.40;80.90;;;;;;4969221;28;20015;-19
2023/06/30 03:13:37;;;;;;;2.33;1.17;;;17.40;80.90;;;;;;4960037;28;20042;-19
2023/06/30 03:16:04;;;;;;;2.67;1.10;;;17.30;80.90;;;;;;4950375;28;20014;-19
2023/06/30 03:18:30;;;;;;;2.33;1.30;;;17.30;81.00;;;;;;4947145;28;20218;-19
2023/06/30 03:20:55;;;;;;;1.97;1.10;;;17.20;80.90;;;;;;4967710;28;20053;-19
2023/06/30 03:23:21;;;;;;;2.30;1.10;;;17.10;80.90;;;;;;4965976;28;20088;-19
2023/06/30 03:25:47;;;;;;;3.97;1.20;;;17.10;81.30;;;;;;4968852;28;20383;-19
2023/06/30 03:28:13;;;;;;;1.92;0.90;;;17.10;81.10;;;;;;4958696;28;20058;-19
2023/06/30 03:30:38;;;;;;;1.40;1.20;;;17.00;81.40;;;;;;4966794;28;20492;-19
2023/06/30 03:33:05;;;;;;;1.33;1.10;;;16.90;81.10;;;;;;4938066;28;21045;-19
2023/06/30 03:35:30;;;;;;;1.55;1.00;;;16.90;81.10;;;;;;4973753;28;20038;-19
2023/06/30 03:37:56;;;;;;;2.08;1.10;;;16.90;81.20;;;;;;4970639;28;20089;-19
2023/06/30 03:40:22;;;;;;;1.57;0.90;;;16.80;81.10;;;;;;4964471;28;20247;-19
2023/06/30 03:42:48;;;;;;;2.15;1.10;;;16.80;81.20;;;;;;4973640;28;20034;-18
2023/06/30 03:45:13;;;;;;;1.53;0.90;;;16.70;81.10;;;;;;4956142;28;20996;-19
2023/06/30 03:47:39;;;;;;;1.63;1.00;;;16.70;81.30;;;;;;4956111;28;21513;-19
2023/06/30 03:50:05;;;;;;;1.70;1.20;;;16.60;81.30;;;;;;4958512;28;20035;-19
2023/06/30 03:52:31;;;;;;;2.00;1.00;;;16.60;81.40;;;;;;4966650;28;21761;-19
2023/06/30 03:54:57;;;;;;;2.13;1.20;;;16.60;81.40;;;;;;4967375;28;20030;-19
2023/06/30 03:57:22;;;;;;;1.50;1.07;;;16.50;81.40;;;;;;4982660;28;20081;-19
2023/06/30 03:59:48;;;;;;;1.75;0.95;;;16.50;81.60;;;;;;4966568;28;20062;-18
2023/06/30 04:02:14;;;;;;;2.13;1.10;;;16.40;81.60;;;;;;4968344;28;20227;-19
2023/06/30 04:04:40;;;;;;;1.30;0.90;;;16.40;81.70;;;;;;4944473;28;20759;-19
2023/06/30 04:07:06;;;;;;;1.58;0.95;;;16.40;81.70;;;;;;4943483;28;20038;-19
2023/06/30 04:09:31;;;;;;;2.00;1.10;;;16.40;81.80;;;;;;4961260;28;20089;-19
2023/06/30 04:11:57;;;;;;;1.55;1.10;;;16.40;81.80;;;;;;4966945;28;20041;-19
2023/06/30 04:14:23;;;;;;;1.40;1.00;;;16.30;81.80;;;;;;4969268;28;20311;-19
2023/06/30 04:16:48;;;;;;;1.80;1.00;;;16.30;81.90;;;;;;4958375;28;20057;-19
2023/06/30 04:19:14;;;;;;;1.60;1.10;;;16.30;82.00;;;;;;4938043;28;20062;-19
2023/06/30 04:21:40;;;;;;;1.57;1.00;;;16.30;82.10;;;;;;4953480;28;20278;-19
2023/06/30 04:24:06;;;;;;;2.63;1.20;;;16.30;82.10;;;;;;4957185;28;20026;-20
2023/06/30 04:26:32;;;;;;;1.93;1.13;;;16.20;82.20;;;;;;4972413;28;20088;-19
2023/06/30 04:28:58;;;;;;;1.60;1.08;;;16.20;82.30;;;;;;4964594;28;20125;-19
2023/06/30 04:31:26;;;;;;;2.60;1.10;;;16.20;82.40;;;;;;4970441;28;20117;-19
2023/06/30 04:33:52;;;;;;;2.83;1.20;;;16.20;82.50;;;;;;4946716;28;20019;-19
2023/06/30 04:36:20;;;;;;;1.70;1.20;;;16.20;82.60;;;;;;4951563;28;20563;-18
2023/06/30 04:38:48;;;;;;;2.22;1.30;;;16.20;82.80;;;;;;4970087;28;20054;-19
2023/06/30 04:41:15;;;;;;;3.05;1.20;;;16.20;82.90;;;;;;4957822;28;20130;-19
2023/06/30 04:43:41;;;;;;;2.72;1.23;;;16.20;83.10;;;;;;4952279;28;20058;-18
2023/06/30 04:46:06;;;;;;;3.17;1.20;;;16.20;83.20;;;;;;4966762;28;20070;-19
2023/06/30 04:48:33;;;;;;;2.60;1.20;;;16.30;83.40;;;;;;4958531;28;20030;-18
2023/06/30 04:50:59;;;;;;;3.22;1.30;;;16.30;83.60;;;;;;4939922;28;20472;-19
2023/06/30 04:53:25;;;;;;;2.27;1.17;;;16.30;83.70;;;;;;4955356;28;20081;-19
2023/06/30 04:55:51;;;;;;;2.35;1.23;;;16.30;83.70;;;;;;4961240;28;20038;-19
2023/06/30 04:58:18;;;;;;;1.90;1.10;;;16.40;83.80;;;;;;4965555;28;20241;-19
2023/06/30 05:00:43;;;;;;;2.25;1.20;;;16.40;83.90;;;;;;4945317;28;20051;-19
2023/06/30 05:03:10;;;;;;;1.75;1.13;;;16.40;84.00;;;;;;4950374;28;20069;-19
2023/06/30 05:05:35;;;;;;;2.80;1.30;;;16.50;84.00;;;;;;4980772;28;20084;-18
2023/06/30 05:08:01;;;;;;;3.07;1.37;;;16.50;84.10;;;;;;4932990;28;20753;-19
2023/06/30 05:10:27;;;;;;;2.57;1.50;;;16.50;84.20;;;;;;4949942;28;20643;-19
2023/06/30 05:12:52;;;;;;;2.83;1.17;;;16.60;84.30;;;;;;4962716;28;20078;-19
2023/06/30 05:15:18;;;;;;;2.40;1.20;;;16.60;84.40;;;;;;4966291;28;20537;-19
2023/06/30 05:17:44;;;;;;;2.10;1.30;;;16.60;84.50;;;;;;4951441;28;20671;-19
2023/06/30 05:20:10;;;;;;;2.40;1.13;;;16.70;84.70;;;;;;4978097;28;20046;-18
2023/06/30 05:22:36;;;;;;;2.77;1.33;;;16.70;84.70;;;;;;4938558;28;20035;-18
2023/06/30 05:25:02;;;;;;;2.50;1.50;;;16.70;84.70;;;;;;4952519;28;20394;-18
2023/06/30 05:27:28;;;;;;;4.28;1.50;;;16.80;84.90;;;;;;4983272;28;20477;-19
2023/06/30 05:29:53;;;;;;;4.23;1.50;;;16.80;84.90;;;;;;4959059;28;20031;-19
2023/06/30 05:32:19;;;;;;;2.40;1.40;;;16.90;85.00;;;;;;4968280;28;20702;-18
2023/06/30 05:34:46;;;;;;;3.50;1.50;;;16.90;85.00;;;;;;4930627;28;20590;-19
2023/06/30 05:37:12;;;;;;;2.75;1.40;;;17.00;85.10;;;;;;4936901;28;20022;-19
2023/06/30 05:39:38;;;;;;;2.85;1.40;;;17.00;85.10;;;;;;4966856;28;20043;-19
2023/06/30 05:42:04;;;;;;;3.30;1.60;;;17.10;85.20;;;;;;4950109;28;20693;-19
2023/06/30 05:44:31;;;;;;;3.27;1.53;;;17.10;85.20;;;;;;4953148;28;20142;-19
2023/06/30 05:46:56;;;;;;;3.00;1.40;;;17.20;85.30;;;;;;4945565;28;20331;-19
2023/06/30 05:49:22;;;;;;;2.65;1.30;;;17.30;85.40;;;;;;4957754;28;20564;-19
2023/06/30 05:51:48;;;;;;;3.30;1.37;;;17.30;85.40;;;;;;4951321;28;20033;-18
2023/06/30 05:54:14;;;;;;;2.53;1.40;;;17.30;85.50;;;;;;4938076;28;20363;-18
2023/06/30 05:56:40;;;;;;;2.30;1.30;;;17.40;85.50;;;;;;4967671;28;20034;-19
2023/06/30 05:59:09;;;;;;;4.03;1.30;;;17.50;85.60;;;;;;4967848;28;20033;-18
2023/06/30 06:01:38;;;;;;;3.60;1.38;;;17.50;85.50;;;;;;4956698;28;20043;-18
2023/06/30 06:04:08;;;;;;;2.88;1.50;;;17.60;85.50;;;;;;4956037;28;20914;-18
2023/06/30 06:06:33;;;;;;;3.58;1.70;;;17.70;85.50;;;;;;4969755;28;20046;-19
2023/06/30 06:08:59;;;;;;;2.77;1.40;;;17.80;85.50;;;;;;4935315;28;20600;-18
2023/06/30 06:11:24;;;;;;;3.03;1.30;;;17.80;85.50;;;;;;4968773;28;20049;-19
2023/06/30 06:13:50;;;;;;;3.50;1.40;;;17.90;85.70;;;;;;4954533;28;20058;-18
2023/06/30 06:16:16;;;;;;;4.10;1.50;;;18.00;85.90;;;;;;4963306;28;20607;-18
2023/06/30 06:18:42;;;;;;;4.10;1.53;;;18.10;85.80;;;;;;4967157;28;20026;-19
2023/06/30 06:21:08;;;;;;;3.00;1.30;;;18.10;85.60;;;;;;4945572;28;20046;-18
2023/06/30 06:23:33;;;;;;;2.42;1.30;;;18.30;85.60;;;;;;4931403;28;20022;-19
2023/06/30 06:26:02;;;;;;;2.70;1.50;;;18.30;85.50;;;;;;4968203;28;20030;-19
2023/06/30 06:28:27;;;;;;;3.50;1.27;;;18.40;85.70;;;;;;4960174;28;20431;-19
2023/06/30 06:30:53;;;;;;;2.45;1.35;;;18.50;85.60;;;;;;4955618;28;20022;-19
2023/06/30 06:33:20;;;;;;;2.47;1.20;;;18.60;85.50;;;;;;4971598;28;20078;-18
2023/06/30 06:35:45;;;;;;;3.83;1.30;;;18.70;85.50;;;;;;4957454;28;20041;-19
2023/06/30 06:38:15;;;;;;;2.10;1.23;;;18.70;85.40;;;;;;4956815;28;20054;-19
2023/06/30 06:40:40;;;;;;;2.37;1.20;;;18.80;85.40;;;;;;4939819;28;20026;-19
2023/06/30 06:43:07;;;;;;;2.00;1.40;;;18.80;85.60;;;;;;4983991;28;20396;-19
2023/06/30 06:45:32;;;;;;;2.28;1.38;;;18.90;85.50;;;;;;4955016;28;20420;-19
2023/06/30 06:48:22;;;;;;;2.83;1.30;;;19.00;85.50;;;;;;4963347;28;20034;-19
2023/06/30 06:50:49;;;;;;;2.92;1.10;;;19.10;84.90;;;;;;4972381;28;20019;-18
2023/06/30 06:53:19;;;;;;;1.80;1.20;;;19.10;85.20;;;;;;4972586;28;20061;-18
2023/06/30 06:55:49;;;;;;;2.35;1.30;;;19.20;85.00;;;;;;4940905;28;20018;-19
2023/06/30 06:58:15;;;;;;;2.57;1.37;;;19.30;84.90;;;;;;4978286;28;20057;-18
2023/06/30 07:00:41;;;;;;;2.33;1.10;;;19.40;84.90;;;;;;4953463;28;20042;-19
2023/06/30 07:03:07;;;;;;;3.10;1.40;;;19.50;85.00;;;;;;4957529;28;20034;-18
2023/06/30 07:05:32;;;;;;;1.80;1.20;;;19.50;84.70;;;;;;4969714;28;20035;-19
2023/06/30 07:07:58;;;;;;;2.63;1.30;;;19.60;84.40;;;;;;4940429;28;20047;-18
2023/06/30 07:10:24;;;;;;;1.70;1.20;;;19.60;84.30;;;;;;4937146;28;20081;-19
2023/06/30 07:12:50;;;;;;;3.92;1.20;;;19.70;84.30;;;;;;4966504;28;20319;-19
2023/06/30 07:15:16;;;;;;;1.63;1.10;;;19.70;84.00;;;;;;4934905;28;20597;-19
2023/06/30 07:17:41;;;;;;;1.43;1.10;;;19.80;84.00;;;;;;4959121;28;20143;-18
2023/06/30 07:20:07;;;;;;;1.92;1.33;;;19.90;84.00;;;;;;4967962;28;20076;-19
2023/06/30 07:22:33;;;;;;;3.67;1.20;;;19.90;83.70;;;;;;4965873;28;20220;-18
2023/06/30 07:25:02;;;;;;;3.07;1.10;;;20.00;83.60;;;;;;4956688;28;20496;-19
2023/06/30 07:27:28;;;;;;;2.50;1.48;;;20.10;83.80;;;;;;4943920;28;20532;-18
2023/06/30 07:29:54;;;;;;;2.15;1.25;;;20.20;83.80;;;;;;4983970;28;20045;-19
2023/06/30 07:32:20;;;;;;;3.30;1.40;;;20.30;83.60;;;;;;4939568;28;20503;-19
2023/06/30 07:34:45;;;;;;;2.83;1.10;;;20.30;83.30;;;;;;4956837;28;20236;-19
2023/06/30 07:37:11;;;;;;;2.90;1.60;;;20.40;83.30;;;;;;4968968;28;20031;-19
2023/06/30 07:39:37;;;;;;;3.77;1.60;;;20.50;83.30;;;;;;4943536;28;20030;-19
2023/06/30 07:42:03;;;;;;;3.08;1.60;;;20.60;83.10;;;;;;4910583;28;20018;-18
2023/06/30 07:44:29;;;;;;;2.40;1.70;;;20.70;83.00;;;;;;4968527;28;20106;-19
2023/06/30 07:46:54;;;;;;;4.67;1.50;;;20.80;82.80;;;;;;4970364;28;20329;-18
2023/06/30 07:49:21;;;;;;;3.13;1.33;;;20.90;82.60;;;;;;4978220;28;20176;-18
2023/06/30 07:51:47;;;;;;;2.00;1.20;;;21.00;82.70;;;;;;4979766;28;20537;-19
2023/06/30 07:54:13;;;;;;;3.42;1.40;;;21.10;82.50;;;;;;4961249;28;20030;-19
2023/06/30 07:56:39;;;;;;;3.08;1.35;;;21.20;82.20;;;;;;4921918;28;20041;-19
2023/06/30 07:59:05;;;;;;;2.40;1.10;;;21.30;82.20;;;;;;4962615;28;20111;-19
2023/06/30 08:01:31;;;;;;;2.17;1.00;;;21.50;82.50;;;;;;4954679;28;20050;-19
2023/06/30 08:03:57;;;;;;;3.10;1.30;;;21.60;82.60;;;;;;4958517;28;20144;-18
2023/06/30 08:06:22;;;;;;;2.20;1.20;;;21.80;82.60;;;;;;4968022;28;20110;-19
2023/06/30 08:08:48;;;;;;;3.53;1.30;;;22.00;82.70;;;;;;4953355;28;20198;-19
2023/06/30 08:11:14;;;;;;;1.67;1.20;;;22.20;82.40;;;;;;4956562;28;20072;-19
2023/06/30 08:13:40;;;;;;;2.20;1.20;;;22.40;82.30;;;;;;4933130;28;20114;-19
2023/06/30 08:16:05;;;;;;;2.33;1.20;;;22.60;82.50;;;;;;4968167;28;20058;-19
2023/06/30 08:18:31;;;;;;;1.97;1.17;;;22.90;83.40;;;;;;4951085;28;20040;-19
2023/06/30 08:20:57;;;;;;;3.40;1.03;;;23.20;84.00;;;;;;4964208;28;20053;-19
2023/06/30 08:23:24;;;;;;;1.20;1.03;;;23.70;84.30;;;;;;4965811;28;20274;-19
2023/06/30 08:25:53;;;;;;;2.15;1.00;;;24.10;84.90;;;;;;4954811;28;20675;-18
2023/06/30 08:28:19;;;;;;;2.47;1.17;;;24.60;84.80;;;;;;4943668;28;20054;-19
2023/06/30 08:30:45;;;;;;;3.72;1.00;;;25.00;84.10;;;;;;4961052;28;20499;-19
2023/06/30 08:33:10;;;;;;;1.90;0.90;;;25.50;83.90;;;;;;4952772;28;20030;-20
2023/06/30 08:35:36;;;;;;;3.00;1.02;;;26.00;83.80;;;;;;4946320;28;20114;-19
2023/06/30 08:38:02;;;;;;;3.17;1.13;;;26.40;83.10;;;;;;4967995;28;20514;-19
2023/06/30 08:40:29;;;;;;;1.95;1.08;;;26.90;82.20;;;;;;4939153;28;20726;-19
2023/06/30 08:42:58;;;;;;;1.60;1.10;;;27.20;80.40;;;;;;4965987;28;20027;-19
2023/06/30 08:45:26;;;;;;;1.20;0.80;;;27.60;78.60;;;;;;4926162;28;20156;-19
2023/06/30 08:47:52;;;;;;;2.10;1.00;;;27.80;77.70;;;;;;4954467;28;20042;-19
2023/06/30 08:50:21;;;;;;;1.90;1.00;;;28.10;77.00;;;;;;4958221;28;20121;-19
2023/06/30 08:52:47;;;;;;;2.33;1.10;;;28.30;75.80;;;;;;4964157;28;20089;-19
2023/06/30 08:55:13;;;;;;;1.75;0.93;;;28.50;75.40;;;;;;4947305;28;20015;-19
2023/06/30 08:57:41;;;;;;;2.70;0.90;;;28.70;75.00;;;;;;4960153;28;20026;-19
2023/06/30 09:00:09;;;;;;;1.42;0.90;;;29.00;73.90;;;;;;4952523;28;20050;-20
2023/06/30 09:02:36;;;;;;;2.00;1.13;;;29.30;73.50;;;;;;4950888;28;20790;-19
2023/06/30 09:05:03;;;;;;;2.08;1.17;;;29.50;72.40;;;;;;4966003;28;20025;-19
2023/06/30 09:07:37;;;;;;;2.30;1.23;;;29.70;71.70;;;;;;4955979;28;20552;-19
2023/06/30 09:10:05;;;;;;;1.43;0.90;;;29.80;69.70;;;;;;4967659;28;20405;-19
2023/06/30 09:12:32;;;;;;;1.88;1.20;;;29.90;69.40;;;;;;4956483;28;20367;-19
2023/06/30 09:15:01;;;;;;;1.73;1.00;;;30.00;68.00;;;;;;4967486;28;20038;-19
2023/06/30 09:17:28;;;;;;;1.00;1.00;;;29.90;65.40;;;;;;4929773;28;20694;-20
2023/06/30 09:19:54;;;;;;;1.70;1.20;;;29.90;65.40;;;;;;4955206;28;20031;-20
2023/06/30 09:22:23;;;;;;;1.80;1.20;;;29.80;64.60;;;;;;4957358;28;20038;-19
2023/06/30 09:24:49;;;;;;;1.40;1.00;;;29.80;63.60;;;;;;4969614;28;20043;-19
2023/06/30 09:27:16;;;;;;;2.20;1.00;;;29.80;65.60;;;;;;4963030;28;20023;-19
2023/06/30 09:29:42;;;;;;;2.72;1.40;;;29.90;65.30;;;;;;4975850;28;20027;-19
2023/06/30 09:32:08;;;;;;;2.10;1.23;;;30.00;65.40;;;;;;4937719;28;20049;-19
2023/06/30 09:34:34;;;;;;;1.97;1.10;;;30.20;64.60;;;;;;4952230;28;20054;-19
2023/06/30 09:37:00;;;;;;;1.30;1.00;;;30.30;64.10;;;;;;4968959;28;20023;-19
2023/06/30 09:39:26;;;;;;;1.90;1.00;;;30.40;63.40;;;;;;4959947;28;20646;-19
2023/06/30 09:41:52;;;;;;;1.33;1.20;;;30.60;63.10;;;;;;4984540;28;20038;-19
2023/06/30 09:44:22;;;;;;;3.28;1.23;;;30.70;62.70;;;;;;4956196;28;20038;-19
2023/06/30 09:46:50;;;;;;;2.70;1.10;;;30.80;61.90;;;;;;4940309;28;20112;-19
2023/06/30 09:49:35;;;;;;;1.65;1.02;;;30.90;61.40;;;;;;4962807;28;20033;-19
2023/06/30 09:52:03;;;;;;;0.90;0.80;;;30.90;58.40;;;;;;4974535;28;20033;-19
2023/06/30 09:54:30;;;;;;;2.08;1.05;;;31.00;59.80;;;;;;4959404;28;20682;-19
2023/06/30 09:57:06;;;;;;;2.20;0.80;;;30.90;58.50;;;;;;4973825;28;20034;-19
2023/06/30 09:59:32;;;;;;;1.58;0.90;;;31.00;56.10;;;;;;4961135;28;20223;-19
2023/06/30 10:01:59;;;;;;;1.63;0.88;;;30.90;58.10;;;;;;4984195;28;20406;-19
2023/06/30 10:04:27;;;;;;;1.90;1.00;;;31.00;58.00;;;;;;4934585;28;20041;-19
2023/06/30 10:06:54;;;;;;;1.48;0.90;;;31.10;59.00;;;;;;4956968;28;20038;-19
2023/06/30 10:09:22;;;;;;;2.10;1.10;;;31.20;58.10;;;;;;4959379;28;20110;-20
2023/06/30 10:11:57;;;;;;;2.13;1.30;;;31.30;58.00;;;;;;4985594;28;20029;-19
2023/06/30 10:14:29;;;;;;;1.33;0.88;;;31.50;55.80;;;;;;4954956;28;20445;-19
2023/06/30 10:16:56;;;;;;;1.53;0.90;;;31.60;56.20;;;;;;4970769;28;20058;-19
2023/06/30 10:19:23;;;;;;;1.33;1.10;;;31.80;57.60;;;;;;4936344;28;20063;-19
2023/06/30 10:21:49;;;;;;;1.73;1.08;;;32.00;56.50;;;;;;4956911;28;20048;-19
2023/06/30 10:24:19;;;;;;;2.35;1.10;;;32.10;55.00;;;;;;4961593;28;20054;-19
2023/06/30 10:26:47;;;;;;;1.67;1.30;;;32.10;53.10;;;;;;4968127;28;20038;-19
2023/06/30 10:29:13;;;;;;;2.17;1.00;;;32.00;52.90;;;;;;4980559;28;20023;-19
2023/06/30 10:31:42;;;;;;;1.40;1.17;;;31.80;52.10;;;;;;4956915;28;20085;-19
2023/06/30 10:34:09;;;;;;;1.27;0.93;;;31.60;51.20;;;;;;4939810;28;20367;-19
2023/06/30 10:36:36;;;;;;;2.05;0.90;;;31.50;52.10;;;;;;4967846;28;20041;-19
2023/06/30 10:39:02;;;;;;;1.33;0.90;;;31.30;52.00;;;;;;4955926;28;20580;-19
2023/06/30 10:41:28;;;;;;;1.03;0.83;;;31.30;51.80;;;;;;4955973;28;20271;-19
2023/06/30 10:44:03;;;;;;;1.23;1.00;;;31.20;51.50;;;;;;4968598;28;20022;-19
2023/06/30 10:46:46;;;;;;;1.63;0.85;;;31.10;49.50;;;;;;4954477;28;20157;-19
2023/06/30 10:49:29;;;;;;;3.65;1.23;;;30.90;49.20;;;;;;4940529;28;20034;-19
2023/06/30 10:51:57;;;;;;;1.50;1.10;;;30.70;49.50;;;;;;4969741;28;20407;-19
2023/06/30 10:54:31;;;;;;;1.65;0.95;;;30.60;50.60;;;;;;4952836;28;20204;-19
2023/06/30 10:57:05;;;;;;;1.40;1.10;;;30.60;50.30;;;;;;4957985;28;20121;-19
2023/06/30 10:59:40;;;;;;;1.65;1.10;;;30.70;50.70;;;;;;4890649;28;2257363;-19
2023/06/30 11:02:11;;;;;;;1.35;1.00;;;30.80;50.40;;;;;;4956756;28;20108;-20
2023/06/30 11:04:37;;;;;;;1.80;1.10;;;30.90;50.80;;;;;;4968270;28;20018;-19
2023/06/30 11:07:04;;;;;;;1.27;1.10;;;30.90;51.20;;;;;;4935994;28;20031;-19
2023/06/30 11:09:48;;;;;;;1.40;1.10;;;31.00;50.30;;;;;;4960539;28;20678;-20
2023/06/30 11:12:40;;;;;;;2.60;1.00;;;31.00;48.40;;;;;;4959221;28;20031;-19
2023/06/30 11:15:06;;;;;;;1.42;0.90;;;30.90;49.40;;;;;;4970877;28;20691;-19
2023/06/30 11:17:50;;;;;;;1.38;0.85;;;30.70;49.60;;;;;;4957439;28;20214;-19
2023/06/30 11:20:16;;;;;;;1.43;1.10;;;30.60;48.40;;;;;;4964855;28;20038;-19
2023/06/30 11:22:55;;;;;;;1.20;0.93;;;30.50;48.90;;;;;;4953296;28;20073;-19
2023/06/30 11:25:21;;;;;;;1.10;0.90;;;30.20;47.30;;;;;;4951835;28;20156;-19
2023/06/30 11:27:47;;;;;;;2.00;1.03;;;30.00;48.30;;;;;;4960235;28;20035;-19
2023/06/30 11:30:18;;;;;;;2.05;1.30;;;29.90;48.80;;;;;;4956085;28;20038;-19
2023/06/30 11:32:45;;;;;;;2.25;1.05;;;29.70;48.90;;;;;;4958261;28;20516;-19
2023/06/30 11:35:17;;;;;;;1.48;0.90;;;29.80;50.00;;;;;;4963978;28;20461;-19
2023/06/30 11:37:50;;;;;;;1.20;1.00;;;29.90;50.10;;;;;;4938088;28;20027;-19
2023/06/30 11:40:16;;;;;;;1.05;0.90;;;30.10;50.60;;;;;;4960274;28;20839;-19
2023/06/30 11:42:42;;;;;;;1.75;1.20;;;30.30;51.50;;;;;;4971046;28;20111;-19
2023/06/30 11:45:08;;;;;;;1.10;1.00;;;30.60;50.90;;;;;;4947238;28;20039;-19
2023/06/30 11:47:46;;;;;;;2.50;1.07;;;30.70;50.40;;;;;;4966143;28;20026;-19
2023/06/30 11:50:13;;;;;;;1.38;0.98;;;30.80;48.50;;;;;;4968694;28;20029;-19
2023/06/30 11:52:39;;;;;;;1.58;1.42;;;30.90;49.30;;;;;;4938703;28;20030;-19
2023/06/30 11:55:06;;;;;;;1.90;1.15;;;30.80;49.30;;;;;;4958647;28;20027;-20
2023/06/30 11:57:34;;;;;;;2.70;1.20;;;30.70;48.40;;;;;;4966691;28;20440;-20
2023/06/30 12:00:09;;;;;;;1.63;0.90;;;30.60;49.10;;;;;;4957395;28;20393;-20
2023/06/30 12:02:35;;;;;;;2.30;1.10;;;30.50;47.60;;;;;;4967334;28;20042;-19
2023/06/30 12:05:04;;;;;;;2.53;1.00;;;30.40;48.00;;;;;;4971262;28;20035;-20
2023/06/30 12:07:31;;;;;;;0.88;0.88;;;30.30;48.00;;;;;;4935625;28;20373;-19
2023/06/30 12:10:01;;;;;;;1.10;1.00;;;30.20;48.30;;;;;;4969568;28;20084;-19
2023/06/30 12:12:27;;;;;;;1.50;1.30;;;30.20;48.50;;;;;;4953336;28;20191;-19
2023/06/30 12:14:54;;;;;;;2.72;1.00;;;30.20;48.40;;;;;;4974033;28;20039;-19
2023/06/30 12:17:20;;;;;;;1.48;1.00;;;30.20;48.30;;;;;;4960631;28;20124;-20
2023/06/30 12:19:46;;;;;;;1.30;0.90;;;30.20;48.30;;;;;;4984937;28;20058;-19
2023/06/30 12:22:12;;;;;;;1.50;1.23;;;30.30;48.90;;;;;;4950878;28;20277;-19
2023/06/30 12:24:42;;;;;;;2.63;1.10;;;30.40;49.30;;;;;;4938767;28;20030;-19
2023/06/30 12:27:08;;;;;;;1.60;1.13;;;30.60;49.30;;;;;;4953772;28;20034;-19
2023/06/30 12:29:35;;;;;;;5.53;1.35;;;30.70;49.50;;;;;;4956795;28;20049;-19
2023/06/30 12:32:14;;;;;;;1.97;1.13;;;31.00;49.70;;;;;;4961070;28;20917;-19
2023/06/30 12:34:40;;;;;;;1.88;1.40;;;31.20;47.80;;;;;;4970084;28;20035;-19
2023/06/30 12:37:05;;;;;;;2.33;1.30;;;31.30;48.50;;;;;;4951041;28;20049;-19
2023/06/30 12:39:32;;;;;;;1.93;1.40;;;31.40;48.00;;;;;;4934628;28;20536;-19
2023/06/30 12:41:57;;;;;;;2.38;1.20;;;31.50;47.90;;;;;;4959076;28;20125;-19
2023/06/30 12:44:24;;;;;;;2.00;1.20;;;31.60;47.50;;;;;;4967647;28;20040;-19
2023/06/30 12:47:03;;;;;;;1.25;1.10;;;31.70;47.90;;;;;;4960161;28;20084;-19